createdAt,value
2018-09-12T00:01:20.151Z,56.90
2018-09-12T00:03:47.304Z,57.70
2018-09-12T00:06:14.520Z,58.30
2018-09-12T00:08:48.411Z,58.30
2018-09-12T00:11:15.584Z,58.50
2018-09-12T00:13:42.744Z,59.30
2018-09-12T00:16:09.923Z,59.80
2018-09-12T00:18:37.101Z,59.80
2018-09-12T00:21:04.610Z,60.00
2018-09-12T00:23:31.710Z,59.90
2018-09-12T00:25:58.873Z,59.70
2018-09-12T00:28:26.036Z,59.90
2018-09-12T00:30:53.206Z,60.10
2018-09-12T00:33:20.384Z,60.10
2018-09-12T00:35:47.556Z,60.20
2018-09-12T00:38:14.713Z,60.90
2018-09-12T00:40:41.888Z,60.30
2018-09-12T00:43:09.059Z,60.30
2018-09-12T00:45:36.231Z,60.10
2018-09-12T00:48:03.428Z,59.80
2018-09-12T00:50:30.601Z,59.70
2018-09-12T00:52:57.774Z,59.50
2018-09-12T00:55:24.965Z,59.60
2018-09-12T00:57:52.123Z,59.50
2018-09-12T01:00:19.288Z,58.90
2018-09-12T01:02:46.451Z,59.20
2018-09-12T01:05:13.603Z,59.60
2018-09-12T01:07:40.768Z,60.80
2018-09-12T01:10:07.941Z,61.50
2018-09-12T01:12:35.111Z,61.60
2018-09-12T01:15:02.329Z,61.50
2018-09-12T01:17:29.496Z,61.20
2018-09-12T01:19:56.668Z,61.10
2018-09-12T01:22:23.861Z,61.10
2018-09-12T01:24:51.007Z,61.50
2018-09-12T01:27:18.180Z,61.00
2018-09-12T01:29:45.344Z,60.70
2018-09-12T01:32:12.499Z,60.90
2018-09-12T01:34:39.724Z,61.00
2018-09-12T01:37:06.891Z,60.70
2018-09-12T01:39:34.064Z,60.60
2018-09-12T01:42:01.232Z,60.50
2018-09-12T01:44:28.384Z,61.00
2018-09-12T01:47:02.216Z,61.10
2018-09-12T01:49:29.383Z,60.90
2018-09-12T01:51:56.536Z,60.60
2018-09-12T01:54:23.732Z,60.60
2018-09-12T01:56:50.866Z,60.60
2018-09-12T01:59:18.024Z,60.20
2018-09-12T02:01:45.524Z,60.20
2018-09-12T02:04:12.720Z,60.00
2018-09-12T02:06:39.939Z,60.00
2018-09-12T02:09:08.686Z,60.20
2018-09-12T02:11:35.868Z,60.60
2018-09-12T02:14:03.072Z,60.60
2018-09-12T02:16:30.240Z,61.10
2018-09-12T02:18:58.113Z,60.50
2018-09-12T02:21:25.400Z,60.40
2018-09-12T02:23:52.534Z,60.20
2018-09-12T02:26:19.839Z,60.40
2018-09-12T02:28:46.996Z,60.50
2018-09-12T02:31:14.226Z,60.50
2018-09-12T02:33:41.404Z,60.90
2018-09-12T02:36:14.308Z,61.10
2018-09-12T02:38:41.460Z,61.50
2018-09-12T02:41:08.726Z,60.10
2018-09-12T02:43:35.931Z,60.90
2018-09-12T02:46:03.109Z,62.40
2018-09-12T02:48:30.280Z,63.00
2018-09-12T02:50:57.477Z,63.60
2018-09-12T02:53:24.639Z,64.10
2018-09-12T02:55:51.804Z,64.20
2018-09-12T02:58:18.964Z,64.70
2018-09-12T03:00:46.140Z,65.00
2018-09-12T03:03:13.321Z,65.10
2018-09-12T03:05:40.499Z,64.90
2018-09-12T03:08:07.714Z,64.60
2018-09-12T03:10:34.868Z,64.50
2018-09-12T03:13:08.933Z,64.50
2018-09-12T03:15:36.211Z,64.70
2018-09-12T03:18:03.392Z,64.80
2018-09-12T03:20:30.566Z,64.90
2018-09-12T03:22:57.723Z,65.20
2018-09-12T03:25:24.884Z,65.70
2018-09-12T03:27:52.113Z,65.90
2018-09-12T03:30:19.263Z,66.40
2018-09-12T03:32:46.429Z,66.60
2018-09-12T03:35:13.614Z,67.20
2018-09-12T03:37:40.800Z,67.60
2018-09-12T03:40:07.971Z,67.80
2018-09-12T03:42:35.140Z,68.30
2018-09-12T03:45:02.329Z,68.60
2018-09-12T03:47:29.482Z,68.40
2018-09-12T03:49:56.636Z,68.00
2018-09-12T03:52:23.808Z,65.10
2018-09-12T03:54:51.025Z,64.40
2018-09-12T03:57:18.196Z,64.20
2018-09-12T03:59:45.353Z,64.50
2018-09-12T04:02:12.560Z,65.20
2018-09-12T04:04:39.716Z,65.90
2018-09-12T04:07:06.926Z,67.00
2018-09-12T04:09:34.078Z,67.70
2018-09-12T04:12:01.242Z,68.20
2018-09-12T04:14:28.386Z,69.00
2018-09-12T04:16:55.630Z,69.60
2018-09-12T04:19:22.696Z,69.80
2018-09-12T04:21:49.884Z,70.40
2018-09-12T04:24:17.080Z,70.80
2018-09-12T04:26:44.237Z,71.10
2018-09-12T04:29:11.427Z,71.80
2018-09-12T04:31:38.583Z,71.70
2018-09-12T04:34:05.779Z,71.80
2018-09-12T04:36:32.944Z,71.90
2018-09-12T04:39:00.108Z,71.70
2018-09-12T04:41:27.292Z,72.30
2018-09-12T04:43:54.496Z,71.70
2018-09-12T04:46:21.661Z,72.00
2018-09-12T04:48:48.916Z,71.80
2018-09-12T04:51:16.100Z,72.10
2018-09-12T04:53:43.284Z,72.20
2018-09-12T04:56:10.475Z,72.80
2018-09-12T04:58:37.645Z,72.90
2018-09-12T05:01:05.165Z,73.10
2018-09-12T05:03:32.348Z,73.30
2018-09-12T05:05:59.500Z,73.20
2018-09-12T05:08:26.683Z,73.40
2018-09-12T05:10:53.827Z,73.90
2018-09-12T05:13:21.000Z,74.10
2018-09-12T05:15:48.178Z,74.40
2018-09-12T05:18:15.557Z,74.50
2018-09-12T05:20:42.724Z,74.80
2018-09-12T05:23:09.913Z,75.30
2018-09-12T05:25:37.064Z,76.00
2018-09-12T05:28:04.288Z,76.00
2018-09-12T05:30:31.457Z,76.00
2018-09-12T05:32:58.654Z,75.80
2018-09-12T05:35:25.820Z,75.10
2018-09-12T05:37:52.980Z,74.80
2018-09-12T05:40:20.156Z,74.70
2018-09-12T05:42:47.343Z,74.20
2018-09-12T05:45:14.510Z,73.90
2018-09-12T05:47:41.672Z,73.50
2018-09-12T05:50:08.905Z,73.10
2018-09-12T05:52:36.026Z,72.30
2018-09-12T05:55:03.204Z,71.90
2018-09-12T05:57:30.392Z,72.20
2018-09-12T05:59:57.560Z,73.40
2018-09-12T06:02:24.711Z,74.10
2018-09-12T06:04:52.057Z,74.10
2018-09-12T06:07:19.295Z,74.30
2018-09-12T06:09:46.388Z,74.70
2018-09-12T06:12:13.596Z,75.00
2018-09-12T06:14:40.760Z,74.40
2018-09-12T06:17:07.912Z,74.50
2018-09-12T06:19:35.085Z,74.40
2018-09-12T06:22:02.252Z,74.10
2018-09-12T06:24:29.407Z,74.00
2018-09-12T06:26:56.579Z,73.90
2018-09-12T06:29:23.744Z,73.50
2018-09-12T06:31:50.986Z,74.10
2018-09-12T06:34:18.148Z,74.30
2018-09-12T06:36:45.392Z,74.10
2018-09-12T06:39:13.054Z,74.50
2018-09-12T06:41:40.255Z,74.60
2018-09-12T06:44:07.656Z,75.20
2018-09-12T06:46:35.200Z,75.30
2018-09-12T06:49:02.396Z,75.40
2018-09-12T06:51:29.581Z,75.60
2018-09-12T06:53:56.752Z,75.90
2018-09-12T06:56:23.948Z,75.50
2018-09-12T06:58:51.109Z,75.40
2018-09-12T07:01:18.317Z,75.40
2018-09-12T07:03:45.624Z,75.20
2018-09-12T07:06:12.808Z,74.40
2018-09-12T07:08:40.104Z,74.10
2018-09-12T07:11:07.422Z,73.70
2018-09-12T07:13:34.580Z,74.20
2018-09-12T07:16:01.744Z,73.30
2018-09-12T07:18:28.908Z,72.50
2018-09-12T07:20:56.083Z,72.30
2018-09-12T07:23:23.242Z,72.30
2018-09-12T07:25:50.401Z,71.40
2018-09-12T07:28:17.590Z,70.80
2018-09-12T07:30:44.856Z,70.10
2018-09-12T07:33:12.024Z,69.90
2018-09-12T07:35:39.200Z,70.30
2018-09-12T07:38:06.383Z,69.30
2018-09-12T07:40:33.560Z,68.40
2018-09-12T07:43:00.717Z,68.40
2018-09-12T07:45:27.894Z,69.10
2018-09-12T07:47:55.184Z,69.30
2018-09-12T07:50:22.527Z,68.50
2018-09-12T07:52:49.826Z,68.30
2018-09-12T07:55:17.234Z,68.30
2018-09-12T07:57:44.408Z,68.20
2018-09-12T08:00:11.696Z,68.90
2018-09-12T08:02:38.832Z,68.30
2018-09-12T08:05:06.431Z,68.00
2018-09-12T08:07:33.552Z,68.30
2018-09-12T08:10:00.837Z,67.60
2018-09-12T08:12:28.008Z,67.70
2018-09-12T08:14:55.175Z,67.20
2018-09-12T08:17:22.432Z,67.10
2018-09-12T08:19:49.593Z,66.80
2018-09-12T08:22:16.864Z,66.30
2018-09-12T08:24:44.318Z,66.00
2018-09-12T08:27:11.474Z,66.00
2018-09-12T08:29:38.700Z,66.20
2018-09-12T08:32:05.992Z,65.70
2018-09-12T08:34:33.166Z,65.00
2018-09-12T08:37:00.365Z,65.30
2018-09-12T08:39:27.526Z,65.10
2018-09-12T08:41:54.704Z,65.20
2018-09-12T08:44:21.889Z,64.10
2018-09-12T08:46:49.076Z,63.70
2018-09-12T08:49:16.265Z,63.80
2018-09-12T08:51:43.432Z,63.50
2018-09-12T08:54:10.613Z,62.70
2018-09-12T08:56:37.779Z,62.30
2018-09-12T08:59:04.995Z,62.00
2018-09-12T09:01:32.430Z,61.20
2018-09-12T09:03:59.576Z,60.70
2018-09-12T09:06:26.672Z,60.60
2018-09-12T09:08:53.877Z,60.60
2018-09-12T09:11:21.124Z,59.50
2018-09-12T09:13:55.425Z,60.20
2018-09-12T09:16:22.591Z,59.50
2018-09-12T09:18:49.789Z,59.20
2018-09-12T09:21:17.059Z,59.20
2018-09-12T09:23:44.367Z,59.20
2018-09-12T09:26:11.408Z,59.10
2018-09-12T09:28:38.564Z,58.50
2018-09-12T09:31:05.755Z,58.60
2018-09-12T09:33:32.928Z,57.80
2018-09-12T09:36:00.099Z,57.50
2018-09-12T09:38:27.257Z,56.80
2018-09-12T09:40:54.416Z,55.90
2018-09-12T09:43:21.577Z,56.30
2018-09-12T09:45:48.722Z,56.10
2018-09-12T09:48:16.002Z,55.90
2018-09-12T09:50:43.173Z,55.70
2018-09-12T09:53:10.326Z,55.00
2018-09-12T09:55:37.497Z,54.90
2018-09-12T09:58:04.716Z,54.60
2018-09-12T10:00:37.761Z,53.70
2018-09-12T10:03:10.748Z,53.70
2018-09-12T10:05:43.615Z,52.60
2018-09-12T10:08:17.525Z,51.90
2018-09-12T10:10:44.686Z,52.30
2018-09-12T10:13:11.859Z,51.90
2018-09-12T10:15:39.026Z,51.40
2018-09-12T10:18:06.225Z,51.70
2018-09-12T10:20:33.387Z,51.80
2018-09-12T10:23:00.578Z,51.00
2018-09-12T10:25:27.775Z,51.00
2018-09-12T10:27:54.944Z,51.10
2018-09-12T10:30:22.108Z,50.80
2018-09-12T10:32:49.385Z,50.00
2018-09-12T10:35:16.569Z,50.10
2018-09-12T10:37:43.740Z,49.70
2018-09-12T10:40:10.921Z,49.50
2018-09-12T10:42:38.214Z,50.20
2018-09-12T10:45:06.352Z,49.10
2018-09-12T10:47:33.516Z,48.50
2018-09-12T10:50:00.688Z,47.90
2018-09-12T10:52:27.835Z,46.90
2018-09-12T10:54:55.007Z,47.80
2018-09-12T10:57:22.196Z,47.60
2018-09-12T10:59:49.360Z,46.90
2018-09-12T11:02:16.531Z,46.80
2018-09-12T11:04:43.674Z,46.80
2018-09-12T11:07:10.837Z,46.80
2018-09-12T11:09:37.983Z,46.20
2018-09-12T11:12:05.177Z,46.20
2018-09-12T11:14:32.324Z,44.90
2018-09-12T11:16:59.531Z,44.60
2018-09-12T11:19:26.715Z,44.50
2018-09-12T11:21:53.888Z,44.80
2018-09-12T11:24:21.035Z,43.50
2018-09-12T11:26:48.206Z,43.60
2018-09-12T11:29:15.369Z,43.60
2018-09-12T11:31:42.543Z,43.30
2018-09-12T11:34:09.738Z,43.10
2018-09-12T11:36:36.913Z,42.80
2018-09-12T11:39:07.015Z,42.80
2018-09-12T11:41:34.172Z,41.60
2018-09-12T11:44:01.336Z,41.50
2018-09-12T11:46:28.501Z,40.10
2018-09-12T11:48:55.726Z,40.40
2018-09-12T11:51:22.847Z,39.90
2018-09-12T11:53:49.989Z,38.40
2018-09-12T11:56:17.187Z,35.20
2018-09-12T11:58:44.344Z,34.50
2018-09-12T12:01:11.514Z,32.20
2018-09-12T12:03:38.672Z,31.90
2018-09-12T12:06:05.878Z,31.30
2018-09-12T12:08:33.028Z,31.20
2018-09-12T12:11:00.200Z,30.60
2018-09-12T12:13:27.348Z,31.10
2018-09-12T12:15:54.514Z,30.80
2018-09-12T12:20:55.683Z,30.90
2018-09-12T12:23:22.840Z,30.20
2018-09-12T12:25:50.008Z,30.30
2018-09-12T12:28:17.199Z,31.30
2018-09-12T12:30:44.363Z,30.40
2018-09-12T12:33:11.503Z,30.40
2018-09-12T12:35:38.680Z,30.80
2018-09-12T12:38:05.831Z,29.60
2018-09-12T12:40:32.978Z,29.40
2018-09-12T12:43:00.164Z,29.20
2018-09-12T12:45:27.325Z,29.50
2018-09-12T12:47:54.512Z,28.80
2018-09-12T12:50:21.672Z,28.70
2018-09-12T12:52:48.856Z,29.10
2018-09-12T12:55:16.024Z,29.40
2018-09-12T12:57:43.197Z,28.90
2018-09-12T13:00:10.508Z,30.60
2018-09-12T13:02:37.683Z,29.60
2018-09-12T13:05:04.850Z,30.00
2018-09-12T13:07:32.032Z,29.10
2018-09-12T13:09:59.244Z,29.00
2018-09-12T13:12:26.424Z,29.10
2018-09-12T13:14:53.579Z,28.90
2018-09-12T13:17:20.789Z,29.60
2018-09-12T13:19:47.954Z,28.70
2018-09-12T13:22:15.121Z,29.60
2018-09-12T13:24:42.289Z,29.50
2018-09-12T13:27:09.505Z,27.90
2018-09-12T13:29:36.697Z,28.10
2018-09-12T13:32:03.893Z,28.00
2018-09-12T13:34:31.115Z,28.40
2018-09-12T13:36:58.236Z,28.80
2018-09-12T13:39:25.451Z,28.20
2018-09-12T13:41:52.624Z,28.40
2018-09-12T13:44:19.811Z,28.20
2018-09-12T13:46:46.961Z,28.40
2018-09-12T13:49:14.112Z,28.40
2018-09-12T13:51:41.276Z,29.00
2018-09-12T13:54:08.429Z,28.70
2018-09-12T13:56:35.617Z,29.50
2018-09-12T13:59:02.987Z,28.30
2018-09-12T14:01:30.176Z,29.30
2018-09-12T14:03:57.323Z,29.10
2018-09-12T14:06:24.492Z,28.90
2018-09-12T14:08:51.662Z,29.20
2018-09-12T14:11:18.804Z,29.10
2018-09-12T14:13:46.249Z,28.20
2018-09-12T14:16:13.453Z,28.90
2018-09-12T14:18:40.816Z,28.70
2018-09-12T14:21:08.013Z,28.80
2018-09-12T14:23:35.173Z,29.40
2018-09-12T14:26:02.332Z,28.90
2018-09-12T14:28:29.487Z,29.20
2018-09-12T14:30:56.664Z,29.20
2018-09-12T14:33:23.843Z,29.00
2018-09-12T14:35:51.013Z,28.70
2018-09-12T14:38:18.181Z,30.00
2018-09-12T14:40:45.340Z,29.40
2018-09-12T14:43:12.505Z,29.10
2018-09-12T14:45:39.667Z,29.10
2018-09-12T14:48:06.832Z,28.90
2018-09-12T14:50:34.062Z,29.40
2018-09-12T14:53:01.327Z,29.40
2018-09-12T14:55:28.958Z,30.00
2018-09-12T14:57:56.180Z,29.90
2018-09-12T15:00:30.196Z,29.20
2018-09-12T15:02:58.457Z,29.40
2018-09-12T15:05:26.077Z,29.10
2018-09-12T15:07:53.643Z,29.40
2018-09-12T15:10:20.827Z,30.00
2018-09-12T15:12:54.808Z,30.40
2018-09-12T15:15:21.966Z,30.00
2018-09-12T15:17:49.132Z,30.00
2018-09-12T15:20:16.393Z,29.90
2018-09-12T15:22:43.918Z,30.10
2018-09-12T15:25:11.372Z,30.80
2018-09-12T15:27:38.556Z,30.50
2018-09-12T15:30:05.962Z,31.00
2018-09-12T15:32:33.183Z,30.90
2018-09-12T15:35:00.315Z,31.50
2018-09-12T15:37:27.497Z,30.90
2018-09-12T15:39:54.656Z,31.40
2018-09-12T15:42:21.939Z,31.40
2018-09-12T15:44:49.144Z,31.80
2018-09-12T15:47:16.374Z,32.20
2018-09-12T15:49:43.503Z,32.40
2018-09-12T15:52:10.677Z,32.50
2018-09-12T15:54:37.822Z,33.10
2018-09-12T15:57:04.996Z,32.80
2018-09-12T15:59:32.157Z,32.80
2018-09-12T16:01:59.544Z,32.70
2018-09-12T16:04:26.910Z,32.50
2018-09-12T16:06:54.087Z,33.10
2018-09-12T16:09:21.264Z,33.80
2018-09-12T16:11:48.661Z,33.70
2018-09-12T16:14:15.824Z,34.90
2018-09-12T16:16:43.183Z,34.30
2018-09-12T16:19:10.341Z,33.80
2018-09-12T16:21:37.500Z,34.30
2018-09-12T16:24:04.684Z,34.30
2018-09-12T16:26:32.072Z,34.60
2018-09-12T16:28:59.287Z,34.60
2018-09-12T16:31:26.616Z,34.20
2018-09-12T16:34:00.641Z,35.20
2018-09-12T16:36:28.084Z,35.30
2018-09-12T16:38:55.502Z,34.60
2018-09-12T16:41:22.865Z,34.80
2018-09-12T16:43:50.032Z,35.70
2018-09-12T16:46:17.199Z,34.90
2018-09-12T16:48:44.367Z,35.70
2018-09-12T16:51:11.523Z,36.50
2018-09-12T16:53:38.696Z,36.00
2018-09-12T16:56:05.931Z,35.90
2018-09-12T16:58:33.159Z,35.80
2018-09-12T17:01:00.322Z,36.10
2018-09-12T17:03:27.483Z,37.40
2018-09-12T17:05:54.700Z,37.80
2018-09-12T17:08:21.896Z,38.20
2018-09-12T17:10:49.046Z,38.20
2018-09-12T17:13:16.228Z,39.00
2018-09-12T17:15:43.538Z,39.40
2018-09-12T17:18:10.751Z,41.40
2018-09-12T17:20:37.928Z,41.60
2018-09-12T17:23:05.124Z,42.00
2018-09-12T17:25:32.312Z,42.00
2018-09-12T17:27:59.724Z,40.60
2018-09-12T17:30:26.884Z,41.30
2018-09-12T17:32:54.047Z,42.20
2018-09-12T17:35:21.205Z,43.90
2018-09-12T17:37:48.471Z,43.80
2018-09-12T17:43:18.823Z,44.10
2018-09-12T17:45:46.021Z,43.60
2018-09-12T17:48:13.308Z,43.90
2018-09-12T17:50:40.525Z,43.80
2018-09-12T17:53:07.809Z,41.90
2018-09-12T17:55:35.067Z,40.70
2018-09-12T17:58:02.213Z,40.90
2018-09-12T18:00:29.581Z,41.30
2018-09-12T18:02:56.829Z,42.80
2018-09-12T18:05:24.009Z,41.70
2018-09-12T18:07:51.173Z,41.10
2018-09-12T18:10:18.375Z,41.20
2018-09-12T18:12:45.560Z,41.50
2018-09-12T18:15:12.756Z,41.60
2018-09-12T18:17:40.118Z,43.70
2018-09-12T18:20:07.200Z,45.00
2018-09-12T18:22:34.599Z,44.10
2018-09-12T18:25:01.787Z,44.70
2018-09-12T18:27:29.029Z,44.50
2018-09-12T18:29:56.273Z,44.60
2018-09-12T18:32:23.441Z,45.80
2018-09-12T18:34:50.631Z,43.60
2018-09-12T18:37:24.616Z,43.60
2018-09-12T18:39:51.788Z,43.90
2018-09-12T18:42:18.945Z,42.80
2018-09-12T18:44:46.100Z,43.20
2018-09-12T18:47:13.283Z,43.90
2018-09-12T18:49:47.230Z,43.10
2018-09-12T18:52:14.419Z,42.90
2018-09-12T18:54:41.576Z,42.30
2018-09-12T18:57:08.849Z,42.30
2018-09-12T18:59:36.095Z,42.20
2018-09-12T19:02:03.296Z,43.40
2018-09-12T19:04:30.468Z,44.30
2018-09-12T19:06:57.685Z,44.40
2018-09-12T19:09:31.576Z,43.70
2018-09-12T19:11:58.735Z,42.90
2018-09-12T19:14:25.917Z,42.00
2018-09-12T19:16:53.116Z,42.10
2018-09-12T19:19:20.280Z,42.00
2018-09-12T19:21:48.248Z,41.20
2018-09-12T19:24:15.436Z,41.80
2018-09-12T19:26:42.600Z,41.20
2018-09-12T19:29:09.770Z,41.40
2018-09-12T19:31:37.079Z,41.10
2018-09-12T19:34:04.232Z,41.30
2018-09-12T19:36:31.392Z,41.80
2018-09-12T19:38:58.568Z,41.40
2018-09-12T19:41:25.733Z,41.00
2018-09-12T19:43:52.896Z,41.20
2018-09-12T19:46:20.061Z,41.90
2018-09-12T19:48:47.285Z,42.20
2018-09-12T19:51:15.573Z,43.30
2018-09-12T19:53:43.025Z,44.20
2018-09-12T19:56:10.905Z,45.00
2018-09-12T19:58:38.063Z,45.80
2018-09-12T20:01:05.330Z,46.60
2018-09-12T20:03:32.498Z,47.70
2018-09-12T20:05:59.677Z,48.30
2018-09-12T20:08:26.974Z,48.70
2018-09-12T20:10:54.236Z,49.30
2018-09-12T20:13:21.400Z,49.60
2018-09-12T20:15:48.647Z,49.80
2018-09-12T20:18:15.807Z,50.50
2018-09-12T20:20:43.039Z,50.70
2018-09-12T20:23:10.205Z,51.00
2018-09-12T20:25:37.454Z,51.00
2018-09-12T20:28:04.717Z,51.20
2018-09-12T20:30:31.884Z,51.50
2018-09-12T20:32:59.172Z,51.80
2018-09-12T20:35:26.430Z,52.00
2018-09-12T20:37:53.604Z,51.70
2018-09-12T20:40:20.769Z,52.00
2018-09-12T20:42:47.934Z,52.30
2018-09-12T20:45:15.114Z,52.60
2018-09-12T20:47:42.286Z,52.90
2018-09-12T20:50:09.491Z,52.90
2018-09-12T20:52:36.648Z,53.30
2018-09-12T20:55:03.863Z,53.30
2018-09-12T20:57:31.076Z,53.40
2018-09-12T20:59:58.285Z,53.40
2018-09-12T21:02:25.462Z,53.40
2018-09-12T21:04:52.633Z,53.40
2018-09-12T21:07:19.812Z,53.80
2018-09-12T21:09:46.986Z,54.10
2018-09-12T21:12:14.164Z,54.40
2018-09-12T21:14:41.461Z,54.70
2018-09-12T21:17:08.612Z,55.00
2018-09-12T21:19:35.784Z,55.20
2018-09-12T21:22:02.960Z,55.40
2018-09-12T21:24:30.446Z,55.80
2018-09-12T21:26:57.636Z,56.00
2018-09-12T21:29:24.809Z,56.40
2018-09-12T21:31:51.977Z,56.80
2018-09-12T21:34:19.152Z,57.20
2018-09-12T21:36:46.326Z,57.60
2018-09-12T21:39:13.497Z,57.70
2018-09-12T21:41:40.657Z,58.00
2018-09-12T21:44:07.811Z,58.20
2018-09-12T21:46:34.967Z,58.40
2018-09-12T21:49:02.121Z,58.80
2018-09-12T21:51:29.512Z,58.90
2018-09-12T21:53:56.668Z,59.40
2018-09-12T21:56:23.844Z,59.90
2018-09-12T21:58:51.035Z,60.50
2018-09-12T22:01:24.056Z,60.80
2018-09-12T22:03:52.047Z,61.00
2018-09-12T22:06:19.584Z,61.40
2018-09-12T22:08:46.758Z,61.60
2018-09-12T22:11:13.988Z,61.70
2018-09-12T22:13:41.187Z,62.00
2018-09-12T22:16:08.351Z,62.00
2018-09-12T22:18:35.517Z,62.40
2018-09-12T22:21:02.690Z,62.70
2018-09-12T22:23:29.868Z,62.80
2018-09-12T22:25:57.051Z,62.90
2018-09-12T22:28:24.245Z,63.00
2018-09-12T22:30:51.436Z,62.90
2018-09-12T22:33:25.297Z,63.10
2018-09-12T22:38:26.593Z,63.50
2018-09-12T22:40:53.888Z,63.70
2018-09-12T22:43:21.069Z,63.60
2018-09-12T22:45:48.327Z,63.70
2018-09-12T22:48:15.489Z,63.90
2018-09-12T22:50:42.665Z,64.30
2018-09-12T22:53:09.816Z,65.10
2018-09-12T22:55:37.021Z,64.40
2018-09-12T22:58:04.676Z,64.40
2018-09-12T23:00:31.885Z,64.40
2018-09-12T23:02:59.057Z,64.50
2018-09-12T23:05:26.224Z,64.90
2018-09-12T23:07:53.420Z,65.00
2018-09-12T23:10:20.573Z,65.20
2018-09-12T23:12:47.749Z,65.40
2018-09-12T23:15:14.914Z,65.40
2018-09-12T23:17:42.085Z,65.60
2018-09-12T23:20:09.241Z,65.50
2018-09-12T23:22:36.408Z,66.00
2018-09-12T23:25:03.589Z,66.20
2018-09-12T23:27:30.769Z,65.90
2018-09-12T23:29:57.925Z,66.50
2018-09-12T23:32:25.104Z,66.70
2018-09-12T23:34:52.264Z,66.70
2018-09-12T23:37:19.428Z,67.00
2018-09-12T23:39:46.601Z,67.10
2018-09-12T23:42:20.522Z,67.30
2018-09-12T23:44:47.717Z,67.60
2018-09-12T23:47:14.903Z,67.80
2018-09-12T23:49:42.048Z,68.60
2018-09-12T23:52:09.256Z,68.20
2018-09-12T23:54:36.454Z,68.30
2018-09-12T23:57:03.647Z,68.50
2018-09-12T23:59:30.801Z,68.70
